Appleton, MN

9:18 AM CDT on August 31, 2016 (GMT -0500)
Appleton Municipal

Weather History for KAQP - March, 2012

Change the Weather History Date:

Saturday, March 10, 2012

  Actual Average Record
Temperature  
Mean Temperature 42 °F -  
Max Temperature 53 °F 27 °F 57 °F (2015)
Min Temperature 30 °F 12 °F -11 °F (2003)
Degree Days  
Heating Degree Days 24    
Moisture  
Dew Point 29 °F    
Average Humidity 60    
Maximum Humidity 86    
Minimum Humidity 44    
Precipitation  
Precipitation 0.00 in - - ()
Sea Level Pressure  
Sea Level Pressure 29.86 in    
Wind  
Wind Speed 8 mph (SSW)    
Max Wind Speed 15 mph    
Max Gust Speed -    
Visibility 10 miles    
Events      
Averages and records for this station are not official NWS values.
T = Trace of Precipitation, MM = Missing Value Source: NWS Daily Summary

Daily Weather History Graph

Daily Weather History Graph

Search for Another Location

Airport or City:

Trip Planner

Search our weather history database for the weather conditions in past years. The results will help you decide how hot, cold, wet, or windy it might be!

Date:

Astronomy

Mar. 10, 2012 Rise Set
Actual Time 6:44 AM CST 6:24 PM CST
Civil Twilight 6:15 AM CST 6:53 PM CST
Nautical Twilight 5:41 AM CST 7:27 PM CST
Astronomical Twilight 5:06 AM CST 8:02 PM CST
Moon 9:50 PM CST (3/10) 7:30 AM CST (3/10)
Length of Visible Light 12h 38m
Length of Day
11h 39m
Waning Gibbous, 92% of the Moon is Illuminated
Mar 10
Waning Gibbous
Mar 14
Last Quarter
Mar 22
New
Mar 30
First Quarter
Apr 6
Full

Hourly Weather History & Observations

Time (CST) Temp. Windchill Dew Point Humidity Pressure Visibility Wind Dir Wind Speed Gust Speed Precip Events Conditions
12:15 AM 30.2 °F 22.6 °F 26.6 °F 86% 29.94 in 10.0 mi SE 8.1 mph - N/A   Clear
12:54 AM 33.8 °F 27.0 °F 28.4 °F 81% 29.91 in 10.0 mi SSE 8.1 mph - N/A   Clear
1:15 AM 33.8 °F 27.7 °F 26.6 °F 75% 29.90 in 10.0 mi SSE 6.9 mph - N/A   Clear
1:34 AM 33.8 °F 28.6 °F 26.6 °F 75% 29.89 in 10.0 mi SSE 5.8 mph - N/A   Clear
1:54 AM 33.8 °F 28.6 °F 26.6 °F 75% 29.89 in 10.0 mi SSE 5.8 mph - N/A   Clear
2:14 AM 33.8 °F 28.6 °F 26.6 °F 75% 29.87 in 10.0 mi South 5.8 mph - N/A   Clear
2:35 AM 37.4 °F 31.4 °F 26.6 °F 65% 29.86 in 10.0 mi SSW 8.1 mph - N/A   Clear
2:54 AM 39.2 °F 33.6 °F 26.6 °F 61% 29.86 in 10.0 mi SSW 8.1 mph - N/A   Clear
3:15 AM 41.0 °F 33.9 °F 26.6 °F 57% 29.85 in 10.0 mi SW 12.7 mph - N/A   Clear
3:35 AM 39.2 °F 32.5 °F 26.6 °F 61% 29.85 in 10.0 mi SW 10.4 mph - N/A   Clear
3:55 AM 39.2 °F 31.6 °F 26.6 °F 61% 29.85 in 10.0 mi SW 12.7 mph - N/A   Clear
4:15 AM 39.2 °F 31.6 °F 26.6 °F 61% 29.85 in 10.0 mi SW 12.7 mph - N/A   Clear
4:34 AM 41.0 °F 33.1 °F 26.6 °F 57% 29.84 in 10.0 mi SW 15.0 mph - N/A   Clear
4:55 AM 39.2 °F 31.6 °F 26.6 °F 61% 29.84 in 10.0 mi SW 12.7 mph - N/A   Clear
5:14 AM 39.2 °F 31.2 °F 26.6 °F 61% 29.85 in 10.0 mi SW 13.8 mph - N/A   Clear
5:34 AM 39.2 °F 31.2 °F 26.6 °F 61% 29.84 in 10.0 mi SW 13.8 mph - N/A   Clear
5:54 AM 39.2 °F 31.2 °F 26.6 °F 61% 29.84 in 10.0 mi SW 13.8 mph - N/A   Clear
6:14 AM 39.2 °F 32.0 °F 26.6 °F 61% 29.85 in 10.0 mi SW 11.5 mph - N/A   Clear
6:34 AM 39.2 °F 32.5 °F 26.6 °F 61% 29.85 in 10.0 mi SW 10.4 mph - N/A   Clear
6:54 AM 37.4 °F 30.3 °F 26.6 °F 65% 29.85 in 10.0 mi SW 10.4 mph - N/A   Clear
7:15 AM 37.4 °F 30.3 °F 26.6 °F 65% 29.86 in 10.0 mi SW 10.4 mph - N/A   Clear
7:34 AM 37.4 °F 30.8 °F 26.6 °F 65% 29.86 in 10.0 mi SW 9.2 mph - N/A   Clear
7:54 AM 37.4 °F 30.8 °F 26.6 °F 65% 29.87 in 10.0 mi SW 9.2 mph - N/A   Clear
8:15 AM 39.2 °F 33.0 °F 26.6 °F 61% 29.87 in 10.0 mi SW 9.2 mph - N/A   Clear
8:35 AM 39.2 °F 34.2 °F 28.4 °F 65% 29.87 in 10.0 mi SW 6.9 mph - N/A   Clear
8:55 AM 42.8 °F 38.6 °F 28.4 °F 57% 29.87 in 10.0 mi SW 6.9 mph - N/A   Clear
9:14 AM 42.8 °F 37.0 °F 28.4 °F 57% 29.86 in 10.0 mi SW 10.4 mph - N/A   Clear
9:34 AM 42.8 °F 36.6 °F 28.4 °F 57% 29.86 in 10.0 mi SW 11.5 mph - N/A   Clear
9:54 AM 42.8 °F 37.0 °F 28.4 °F 57% 29.86 in 10.0 mi SW 10.4 mph - N/A   Clear
10:15 AM 44.6 °F 40.2 °F 28.4 °F 53% 29.86 in 10.0 mi SW 8.1 mph - N/A   Clear
10:34 AM 44.6 °F 40.2 °F 28.4 °F 53% 29.87 in 10.0 mi SW 8.1 mph - N/A   Clear
10:54 AM 46.4 °F 41.5 °F 28.4 °F 50% 29.86 in 10.0 mi WSW 10.4 mph - N/A   Clear
11:14 AM 46.4 °F 41.9 °F 28.4 °F 50% 29.86 in 10.0 mi SW 9.2 mph - N/A   Clear
11:34 AM 46.4 °F 42.4 °F 30.2 °F 53% 29.86 in 10.0 mi WSW 8.1 mph - N/A   Clear
11:54 AM 48.2 °F - 30.2 °F 50% 29.86 in 10.0 mi WSW 4.6 mph - N/A   Clear
12:14 PM 48.2 °F - 30.2 °F 50% 29.86 in 10.0 mi WSW 4.6 mph - N/A   Clear
12:34 PM 48.2 °F - 30.2 °F 50% 29.85 in 10.0 mi SW 9.2 mph - N/A   Clear
12:55 PM 48.2 °F - 30.2 °F 50% 29.85 in 10.0 mi SW 8.1 mph - N/A   Clear
1:14 PM 51.8 °F - 32.0 °F 47% 29.85 in 10.0 mi SSW 6.9 mph - N/A   Clear
1:34 PM 53.6 °F - 32.0 °F 44% 29.84 in 10.0 mi SW 9.2 mph - N/A   Clear
1:55 PM 51.8 °F - 33.8 °F 50% 29.84 in 10.0 mi SW 9.2 mph - N/A   Clear
2:14 PM 53.6 °F - 33.8 °F 47% 29.84 in 10.0 mi Calm Calm - N/A   Clear
2:34 PM 53.6 °F - 33.8 °F 47% 29.84 in 10.0 mi Calm Calm - N/A   Clear
2:54 PM 53.6 °F - 35.6 °F 51% 29.84 in 10.0 mi Calm Calm - N/A   Clear
3:15 PM 50.0 °F - 33.8 °F 54% 29.84 in 10.0 mi Calm Calm - N/A   Clear
3:34 PM 53.6 °F - 35.6 °F 51% 29.84 in 10.0 mi Calm Calm - N/A   Clear
3:54 PM 48.2 °F - 33.8 °F 58% 29.84 in 10.0 mi NE 6.9 mph - N/A   Clear
4:15 PM 48.2 °F - 33.8 °F 58% 29.84 in 10.0 mi NE 8.1 mph - N/A   Clear
4:34 PM 48.2 °F - 35.6 °F 62% 29.84 in 10.0 mi ENE 4.6 mph - N/A   Clear
4:55 PM 48.2 °F - 35.6 °F 62% 29.84 in 10.0 mi East 6.9 mph - N/A   Clear
5:14 PM 46.4 °F 42.9 °F 33.8 °F 62% 29.83 in 10.0 mi ESE 6.9 mph - N/A   Clear
5:35 PM 46.4 °F 43.5 °F 33.8 °F 62% 29.83 in 10.0 mi ESE 5.8 mph - N/A   Clear
5:54 PM 46.4 °F 44.3 °F 33.8 °F 62% 29.83 in 10.0 mi East 4.6 mph - N/A   Clear
6:14 PM 42.8 °F 40.1 °F 33.8 °F 70% 29.83 in 10.0 mi East 4.6 mph - N/A   Clear
6:35 PM 39.2 °F 35.9 °F 33.8 °F 81% 29.83 in 10.0 mi East 4.6 mph - N/A   Clear
6:55 PM 37.4 °F 32.8 °F 32.0 °F 81% 29.83 in 10.0 mi ESE 5.8 mph - N/A   Clear
7:15 PM 37.4 °F 33.8 °F 33.8 °F 87% 29.83 in 10.0 mi ESE 4.6 mph - N/A   Clear
7:34 PM 35.6 °F 32.8 °F 32.0 °F 87% 29.83 in 10.0 mi East 3.5 mph - N/A   Clear
7:55 PM 35.6 °F 31.7 °F 32.0 °F 87% 29.83 in 10.0 mi East 4.6 mph - N/A   Clear
8:15 PM 33.8 °F 30.8 °F 30.2 °F 87% 29.83 in 10.0 mi SE 3.5 mph - N/A   Clear
8:35 PM 33.8 °F 29.6 °F 30.2 °F 87% 29.83 in 10.0 mi SSE 4.6 mph - N/A   Clear
8:56 PM 35.6 °F 30.7 °F 33.8 °F 93% 29.83 in 10.0 mi SE 5.8 mph - N/A   Clear
9:15 PM 44.6 °F 39.7 °F 35.6 °F 71% 29.83 in 10.0 mi South 9.2 mph - N/A   Clear
9:34 PM 48.2 °F - 35.6 °F 62% 29.83 in 10.0 mi South 6.9 mph - N/A   Clear
9:54 PM 48.2 °F - 33.8 °F 58% 29.83 in 10.0 mi South 9.2 mph - N/A   Clear
10:15 PM 48.2 °F - 33.8 °F 58% 29.83 in 10.0 mi South 8.1 mph - N/A   Clear
10:34 PM 48.2 °F - 33.8 °F 58% 29.83 in 10.0 mi South 10.4 mph - N/A   Clear
10:55 PM 48.2 °F - 32.0 °F 54% 29.84 in 10.0 mi SSW 10.4 mph - N/A   Clear
11:15 PM 48.2 °F - 32.0 °F 54% 29.84 in 10.0 mi South 9.2 mph - N/A   Clear
11:36 PM 46.4 °F 42.9 °F 32.0 °F 57% 29.84 in 10.0 mi South 6.9 mph - N/A   Clear
11:55 PM 46.4 °F 43.5 °F 32.0 °F 57% 29.85 in 10.0 mi South 5.8 mph - N/A   Clear